Time;durP1;ratioP1;P1;durP2;ratioP2;P2;SDS_P1;SDS_P2;PMS_P1;PMS_P2;Temp;Humidity;BMP_temperature;BMP_pressure;BME280_temperature;BME280_humidity;BME280_pressure;Samples;Min_cycle;Max_cycle;Signal;HPM_P1;HPM_P2
2022/07/12 00:01:37;;;;;;;6.80;2.20;;;;;;;18.69;91.24;100652.19;5051261;28;20238;-64
2022/07/12 00:04:06;;;;;;;3.95;2.40;;;;;;;18.66;91.56;100660.44;5051683;28;20473;-64
2022/07/12 00:06:31;;;;;;;6.25;2.92;;;;;;;18.63;91.83;100655.22;5051509;28;20082;-63
2022/07/12 00:08:56;;;;;;;4.60;2.42;;;;;;;18.69;91.79;100668.34;5050720;28;20032;-63
2022/07/12 00:11:22;;;;;;;5.82;2.70;;;;;;;18.61;92.07;100649.91;5050193;28;20413;-63
2022/07/12 00:13:47;;;;;;;4.28;2.47;;;;;;;18.63;92.47;100664.19;5033197;28;20032;-64
2022/07/12 00:16:13;;;;;;;4.43;2.20;;;;;;;18.60;92.64;100666.19;5032900;28;20029;-64
2022/07/12 00:18:38;;;;;;;4.43;2.40;;;;;;;18.54;93.24;100666.50;5032880;28;20076;-64
2022/07/12 00:21:04;;;;;;;3.88;2.42;;;;;;;18.51;93.06;100662.16;5032654;28;20108;-62
2022/07/12 00:23:29;;;;;;;4.22;2.35;;;;;;;18.27;93.50;100621.22;5051512;28;20029;-62
2022/07/12 00:25:55;;;;;;;4.90;2.70;;;;;;;18.47;93.52;100663.25;5051121;28;20496;-63
2022/07/12 00:28:20;;;;;;;4.22;2.47;;;;;;;18.45;93.39;100645.47;5050920;28;20023;-63
2022/07/12 00:30:46;;;;;;;3.67;2.10;;;;;;;18.49;93.26;100657.78;5050750;28;20036;-63
2022/07/12 00:33:11;;;;;;;4.47;2.45;;;;;;;18.48;93.07;100656.06;5051426;28;20045;-64
2022/07/12 00:35:36;;;;;;;3.83;2.03;;;;;;;18.50;92.80;100654.16;5050853;28;20067;-63
2022/07/12 00:38:02;;;;;;;2.92;1.90;;;;;;;18.46;92.75;100655.25;5050886;28;20048;-62
2022/07/12 00:40:28;;;;;;;3.38;2.03;;;;;;;18.51;92.84;100650.50;5052015;28;20499;-63
2022/07/12 00:42:54;;;;;;;4.38;2.20;;;;;;;18.52;92.78;100649.56;5052552;28;20044;-63
2022/07/12 00:45:19;;;;;;;4.03;2.05;;;;;;;18.54;92.92;100650.31;5051351;28;20067;-63
2022/07/12 00:47:46;;;;;;;4.03;2.08;;;;;;;18.49;92.99;100649.69;5052452;28;20116;-63
2022/07/12 00:50:19;;;;;;;5.55;2.20;;;;;;;18.45;93.40;100651.69;5051831;28;20021;-63
2022/07/12 00:52:47;;;;;;;3.05;1.65;;;;;;;18.41;93.94;100649.25;5039689;28;20064;-62
2022/07/12 00:55:14;;;;;;;3.72;2.25;;;;;;;18.38;93.87;100651.13;5031856;28;20033;-63
2022/07/12 00:57:43;;;;;;;3.88;1.98;;;;;;;18.30;93.65;100655.22;5031947;28;20052;-63
2022/07/12 01:00:14;;;;;;;3.97;2.00;;;;;;;18.28;94.10;100649.91;5034687;28;20097;-63
2022/07/12 01:02:40;;;;;;;3.97;1.90;;;;;;;18.31;93.84;100649.75;5032125;28;20029;-63
2022/07/12 01:05:07;;;;;;;4.93;2.28;;;;;;;18.30;93.78;100639.91;5031673;28;20485;-62
2022/07/12 01:07:37;;;;;;;3.13;1.88;;;;;;;18.36;94.22;100650.38;5034116;28;20030;-64
2022/07/12 01:10:04;;;;;;;3.80;2.20;;;;;;;18.43;93.78;100650.06;5031585;28;20446;-63
2022/07/12 01:12:30;;;;;;;4.20;2.00;;;;;;;18.47;93.20;100657.03;5031431;28;20029;-63
2022/07/12 01:14:56;;;;;;;3.95;2.00;;;;;;;18.51;93.39;100650.50;5032001;28;20021;-63
2022/07/12 01:17:23;;;;;;;4.82;2.13;;;;;;;18.48;92.77;100643.47;5031970;28;20036;-64
2022/07/12 01:19:51;;;;;;;3.58;1.88;;;;;;;18.53;92.70;100652.16;5031766;28;20085;-63
2022/07/12 01:22:18;;;;;;;3.22;1.80;;;;;;;18.56;92.52;100652.00;5039833;28;20097;-63
2022/07/12 01:24:45;;;;;;;3.35;1.88;;;;;;;18.56;91.89;100652.00;5050945;28;20033;-63
2022/07/12 01:27:12;;;;;;;3.17;1.60;;;;;;;18.55;91.71;100655.63;5051544;28;20084;-63
2022/07/12 01:29:38;;;;;;;3.45;1.80;;;;;;;18.54;91.44;100655.72;5050988;28;20064;-63
2022/07/12 01:34:54;;;;;;;4.10;1.70;;;;;;;18.47;92.03;100662.41;5051392;28;20502;-63
2022/07/12 01:37:20;;;;;;;5.53;1.98;;;;;;;18.40;92.40;100659.19;5047204;28;20029;-63
2022/07/12 01:39:48;;;;;;;3.08;1.73;;;;;;;18.36;93.00;100658.44;5031159;28;20112;-62
2022/07/12 01:42:13;;;;;;;2.38;1.50;;;;;;;18.34;93.17;100656.75;5031531;28;20037;-63
2022/07/12 01:44:39;;;;;;;3.28;1.83;;;;;;;18.31;93.09;100655.13;5031141;28;20107;-63
2022/07/12 01:47:05;;;;;;;3.55;2.00;;;;;;;18.26;93.54;100651.81;5031355;28;20053;-63
2022/07/12 01:49:30;;;;;;;6.63;2.50;;;;;;;18.26;93.76;100651.81;5031028;28;20112;-63
2022/07/12 01:51:56;;;;;;;3.50;1.88;;;;;;;17.98;94.53;100656.91;5036795;28;20094;-63
2022/07/12 01:54:23;;;;;;;3.33;1.60;;;;;;;18.17;94.36;100654.97;5050935;28;20028;-63
2022/07/12 01:56:48;;;;;;;3.20;1.50;;;;;;;17.94;95.04;100655.31;5050724;28;20087;-63
2022/07/12 01:59:14;;;;;;;4.22;2.08;;;;;;;18.14;94.41;100647.06;5050960;28;20037;-63
2022/07/12 02:01:39;;;;;;;2.75;1.65;;;;;;;18.17;94.17;100652.28;5050723;28;20033;-63
2022/07/12 02:04:05;;;;;;;3.80;1.83;;;;;;;18.16;93.77;100650.56;5050834;28;20052;-63
2022/07/12 02:06:32;;;;;;;3.85;1.90;;;;;;;18.19;93.95;100655.78;5045360;28;20127;-64
2022/07/12 02:08:57;;;;;;;3.40;1.67;;;;;;;18.18;94.21;100653.16;5048825;28;20025;-63
2022/07/12 02:11:23;;;;;;;2.63;1.58;;;;;;;18.19;94.42;100647.69;5048639;28;20384;-63
2022/07/12 02:13:48;;;;;;;4.63;2.17;;;;;;;18.19;94.10;100655.78;5048730;28;20021;-63
2022/07/12 02:16:14;;;;;;;3.20;1.77;;;;;;;18.14;94.26;100648.88;5048934;28;20037;-63
2022/07/12 02:18:39;;;;;;;4.03;1.65;;;;;;;18.10;94.44;100661.63;5048315;28;20083;-64
2022/07/12 02:21:05;;;;;;;2.65;1.67;;;;;;;18.08;95.05;100660.00;5049973;28;20033;-64
2022/07/12 02:23:30;;;;;;;4.72;3.38;;;;;;;18.00;95.19;100663.09;5050978;28;20039;-64
2022/07/12 02:25:55;;;;;;;3.45;1.83;;;;;;;17.97;95.44;100665.94;5050617;28;20033;-63
2022/07/12 02:28:21;;;;;;;3.83;2.28;;;;;;;17.97;95.49;100671.31;5050294;28;20511;-63
2022/07/12 02:30:46;;;;;;;3.42;1.85;;;;;;;17.94;96.01;100659.88;5050308;28;20036;-63
2022/07/12 02:33:15;;;;;;;3.05;1.95;;;;;;;17.86;95.93;100657.56;5051017;28;20372;-63
2022/07/12 02:35:41;;;;;;;4.28;1.88;;;;;;;17.89;96.89;100667.31;5050094;28;20108;-64
2022/07/12 02:38:07;;;;;;;2.92;1.58;;;;;;;17.84;96.79;100663.97;5050214;28;20108;-63
2022/07/12 02:43:16;;;;;;;3.55;2.00;;;;;;;17.82;97.47;100664.06;5050767;28;20039;-63
2022/07/12 02:45:41;;;;;;;3.65;1.95;;;;;;;17.78;98.02;100659.78;5050306;28;20029;-63
2022/07/12 02:48:20;;;;;;;3.95;2.00;;;;;;;17.73;97.94;100663.63;5053610;28;20028;-63
2022/07/12 02:50:46;;;;;;;4.88;1.67;;;;;;;17.61;98.38;100659.75;5054244;28;20025;-64
2022/07/12 02:53:12;;;;;;;2.80;1.73;;;;;;;17.71;98.37;100677.19;5037804;28;20029;-63
2022/07/12 02:55:38;;;;;;;5.22;2.03;;;;;;;17.67;98.93;100672.03;5034065;28;20120;-63
2022/07/12 02:58:05;;;;;;;5.53;2.13;;;;;;;17.63;99.04;100678.50;5036990;28;20028;-63
2022/07/12 03:00:31;;;;;;;4.10;2.13;;;;;;;17.63;99.25;100676.69;5034260;28;20116;-63
2022/07/12 03:02:57;;;;;;;3.95;1.90;;;;;;;17.59;99.41;100669.75;5036809;28;20036;-63
2022/07/12 03:05:22;;;;;;;3.63;1.75;;;;;;;17.56;99.64;100672.56;5033690;28;20029;-63
2022/07/12 03:07:48;;;;;;;4.05;2.05;;;;;;;17.56;99.79;100672.56;5034429;28;20108;-63
2022/07/12 03:10:13;;;;;;;4.65;2.17;;;;;;;17.56;99.96;100661.81;5033557;28;20481;-63
2022/07/12 03:12:39;;;;;;;4.32;2.15;;;;;;;17.58;100.00;100664.41;5034267;28;20132;-64
2022/07/12 03:15:05;;;;;;;4.95;2.45;;;;;;;17.55;100.00;100665.47;5032801;28;20045;-62
2022/07/12 03:17:32;;;;;;;4.57;2.33;;;;;;;17.54;100.00;100670.94;5032066;28;20029;-62
2022/07/12 03:19:57;;;;;;;3.35;2.40;;;;;;;17.57;100.00;100668.06;5012361;28;20273;-63
2022/07/12 03:22:23;;;;;;;3.60;2.00;;;;;;;17.57;100.00;100674.34;5026071;28;20033;-63
2022/07/12 03:24:48;;;;;;;3.30;2.15;;;;;;;17.60;100.00;100665.22;5031800;28;20036;-63
2022/07/12 03:27:14;;;;;;;3.88;2.15;;;;;;;17.63;100.00;100663.25;5031693;28;20094;-63
2022/07/12 03:29:39;;;;;;;6.03;2.10;;;;;;;17.62;100.00;100668.72;5032156;28;20040;-64
2022/07/12 03:32:06;;;;;;;3.97;2.20;;;;;;;17.60;100.00;100665.22;5033361;28;20532;-64
2022/07/12 03:34:31;;;;;;;7.90;2.70;;;;;;;17.59;100.00;100669.75;5033674;28;20030;-64
2022/07/12 03:36:57;;;;;;;7.90;3.47;;;;;;;17.55;100.00;100676.22;5033796;28;20033;-64
2022/07/12 03:39:23;;;;;;;7.28;2.40;;;;;;;17.50;99.84;100659.44;5032875;28;20017;-63
2022/07/12 03:41:48;;;;;;;4.97;2.65;;;;;;;17.50;99.66;100674.69;5032366;28;20025;-64
2022/07/12 03:44:14;;;;;;;3.97;2.28;;;;;;;17.49;99.96;100689.13;5031593;28;20036;-63
2022/07/12 03:46:39;;;;;;;9.95;3.13;;;;;;;17.44;99.77;100686.63;5014663;28;20516;-64
2022/07/12 03:49:05;;;;;;;3.60;2.45;;;;;;;17.37;100.00;100687.88;5010558;28;20030;-63
2022/07/12 03:51:30;;;;;;;7.13;2.47;;;;;;;17.35;100.00;100696.97;5013535;28;20507;-64
2022/07/12 03:53:55;;;;;;;5.20;2.65;;;;;;;17.28;100.00;100684.78;5030965;28;20025;-64
2022/07/12 03:59:05;;;;;;;10.07;2.00;;;;;;;17.28;100.00;100692.84;5031262;28;20665;-63
2022/07/12 04:01:31;;;;;;;5.25;2.33;;;;;;;17.25;100.00;100685.78;5032953;28;20029;-64
2022/07/12 04:03:56;;;;;;;5.93;2.60;;;;;;;17.22;100.00;100696.69;5029789;28;20125;-64
2022/07/12 04:06:22;;;;;;;6.90;2.50;;;;;;;17.25;100.00;100701.91;5022549;28;20393;-64
2022/07/12 04:08:47;;;;;;;3.15;1.88;;;;;;;17.27;100.00;100704.53;5033226;28;20040;-64
2022/07/12 04:11:13;;;;;;;4.82;2.40;;;;;;;17.30;100.00;100704.41;5033103;28;20033;-64
2022/07/12 04:13:38;;;;;;;4.05;2.40;;;;;;;17.34;100.00;100706.84;5032730;28;20025;-63
2022/07/12 04:16:05;;;;;;;7.22;2.70;;;;;;;17.40;100.00;100713.72;5032853;28;20033;-64
2022/07/12 04:18:31;;;;;;;3.25;1.95;;;;;;;17.46;100.00;100711.63;5040613;28;20056;-64
2022/07/12 04:20:56;;;;;;;3.47;2.03;;;;;;;17.53;100.00;100707.69;5052871;28;20108;-64
2022/07/12 04:23:21;;;;;;;5.18;2.40;;;;;;;17.53;100.00;100706.84;5052355;28;20020;-64
2022/07/12 04:25:47;;;;;;;3.58;2.00;;;;;;;17.57;100.00;100703.94;5052060;28;20416;-64
2022/07/12 04:28:12;;;;;;;3.65;2.03;;;;;;;17.65;100.00;100714.28;5051666;28;20103;-64
2022/07/12 04:30:37;;;;;;;3.67;2.30;;;;;;;17.69;100.00;100718.59;5051305;28;20029;-64
2022/07/12 04:33:03;;;;;;;4.70;2.00;;;;;;;17.71;100.00;100716.69;5051112;28;20107;-64
2022/07/12 04:35:28;;;;;;;9.50;2.38;;;;;;;17.72;100.00;100722.00;5035622;28;20052;-64
2022/07/12 04:37:54;;;;;;;3.42;1.95;;;;;;;17.78;100.00;100712.72;5031281;28;20017;-64
2022/07/12 04:40:20;;;;;;;3.58;1.85;;;;;;;17.93;100.00;100726.28;5031535;28;20539;-64
2022/07/12 04:42:45;;;;;;;3.35;1.95;;;;;;;17.97;100.00;100725.16;5030956;28;20029;-63
2022/07/12 04:45:10;;;;;;;3.03;1.70;;;;;;;18.00;100.00;100727.72;5031852;28;20033;-64
2022/07/12 04:47:36;;;;;;;4.18;1.90;;;;;;;18.03;99.87;100713.22;5032576;28;20448;-64
2022/07/12 04:50:08;;;;;;;5.38;2.30;;;;;;;18.11;99.35;100722.63;5032779;28;20021;-64
2022/07/12 04:52:34;;;;;;;3.65;1.77;;;;;;;18.21;99.19;100715.81;5032465;28;20032;-64
2022/07/12 04:55:00;;;;;;;4.50;2.00;;;;;;;18.30;98.61;100720.69;5032037;28;20045;-63
2022/07/12 04:57:26;;;;;;;4.43;2.20;;;;;;;18.38;98.39;100723.84;5032140;28;20037;-63
2022/07/12 04:59:51;;;;;;;6.68;2.08;;;;;;;18.49;97.54;100717.06;5032154;28;20044;-63
2022/07/12 05:02:17;;;;;;;2.78;1.67;;;;;;;18.59;97.07;100718.31;5031051;28;20017;-63
2022/07/12 05:04:42;;;;;;;2.75;1.48;;;;;;;18.67;96.10;100726.84;5034400;28;20022;-63
2022/07/12 05:07:08;;;;;;;2.60;1.45;;;;;;;18.79;95.98;100731.56;5032125;28;20025;-64
2022/07/12 05:09:33;;;;;;;3.72;1.73;;;;;;;18.87;95.33;100729.31;5031497;28;20393;-64
2022/07/12 05:11:58;;;;;;;3.40;1.63;;;;;;;18.97;94.22;100725.16;5033821;28;20040;-64
2022/07/12 05:14:24;;;;;;;4.85;2.15;;;;;;;19.08;93.35;100739.78;5048747;28;20108;-64
2022/07/12 05:16:50;;;;;;;2.42;1.30;;;;;;;19.21;93.51;100734.56;5051654;28;20562;-64
2022/07/12 05:19:15;;;;;;;8.55;1.60;;;;;;;19.61;94.85;100734.94;5051139;28;20080;-63
2022/07/12 05:21:42;;;;;;;8.35;2.25;;;;;;;20.34;91.01;100731.47;5051061;28;20115;-64
2022/07/12 05:24:07;;;;;;;3.08;1.65;;;;;;;20.37;86.49;100725.88;5052099;28;20035;-64
2022/07/12 05:26:33;;;;;;;3.00;1.50;;;;;;;20.39;85.88;100728.47;5051431;28;20446;-63
2022/07/12 05:28:59;;;;;;;4.10;1.50;;;;;;;20.29;85.36;100720.06;5051647;28;20035;-63
2022/07/12 05:31:24;;;;;;;3.20;1.65;;;;;;;20.24;84.45;100735.69;5050744;28;20029;-63
2022/07/12 05:33:49;;;;;;;4.53;1.63;;;;;;;20.25;85.60;100736.53;5049828;28;20024;-64
2022/07/12 05:36:15;;;;;;;3.17;1.80;;;;;;;20.31;85.84;100737.03;5031220;28;20091;-64
2022/07/12 05:38:40;;;;;;;2.45;1.48;;;;;;;20.37;84.75;100739.38;5033501;28;20099;-64
2022/07/12 05:41:06;;;;;;;4.65;1.92;;;;;;;20.43;84.49;100746.22;5030882;28;20029;-64
2022/07/12 05:43:31;;;;;;;3.05;1.55;;;;;;;20.48;83.35;100749.50;5013733;28;20400;-64
2022/07/12 05:45:56;;;;;;;2.70;1.52;;;;;;;20.49;81.91;100746.72;5031339;28;20030;-64
2022/07/12 05:48:22;;;;;;;2.25;1.40;;;;;;;20.56;82.11;100758.91;5031169;28;20052;-64
2022/07/12 05:50:47;;;;;;;2.65;1.50;;;;;;;20.76;82.46;100761.22;5031420;28;20041;-64
2022/07/12 05:53:21;;;;;;;2.25;1.50;;;;;;;20.93;82.35;100752.94;5030910;28;20017;-64
2022/07/12 05:55:49;;;;;;;2.15;1.23;;;;;;;21.04;81.83;100759.53;5031192;28;20025;-64
2022/07/12 05:58:14;;;;;;;1.70;1.20;;;;;;;21.14;79.40;100756.13;5030490;28;20109;-64
2022/07/12 06:00:39;;;;;;;7.35;1.42;;;;;;;21.26;78.65;100759.88;5033554;28;20120;-65
2022/07/12 06:03:05;;;;;;;3.63;1.85;;;;;;;21.38;77.62;100761.81;5043125;28;20023;-65
2022/07/12 06:05:30;;;;;;;3.47;1.90;;;;;;;21.55;77.36;100767.84;5050648;28;20123;-65
2022/07/12 06:07:57;;;;;;;5.85;2.30;;;;;;;21.64;77.41;100771.78;5050607;28;20027;-65
2022/07/12 06:10:22;;;;;;;2.22;1.38;;;;;;;21.67;75.74;100763.47;5050712;28;20490;-65
2022/07/12 06:12:47;;;;;;;23.73;2.13;;;;;;;21.83;76.63;100778.63;5050893;28;20025;-64
2022/07/12 06:15:13;;;;;;;7.13;2.53;;;;;;;21.99;76.57;100778.47;5051019;28;20113;-64
2022/07/12 06:17:39;;;;;;;5.20;1.58;;;;;;;22.05;74.62;100775.34;5050129;28;20055;-65
2022/07/12 06:20:05;;;;;;;8.48;1.30;;;;;;;22.05;74.74;100778.06;5050773;28;20493;-66
2022/07/12 06:22:30;;;;;;;4.35;1.60;;;;;;;22.23;75.30;100782.22;5050423;28;20059;-65
2022/07/12 06:24:55;;;;;;;4.07;1.27;;;;;;;22.33;72.94;100783.34;5050570;28;20029;-66
2022/07/12 06:27:21;;;;;;;5.47;1.60;;;;;;;22.52;73.82;100782.94;5049940;28;20035;-71
2022/07/12 06:29:47;;;;;;;2.25;1.20;;;;;;;22.64;72.55;100782.09;5050570;28;20151;-71
2022/07/12 06:32:17;;;;;;;1.90;1.10;;;;;;;22.79;70.96;100778.31;5050870;28;20512;-71
2022/07/12 06:34:42;;;;;;;2.72;1.20;;;;;;;22.93;69.71;100787.19;5023201;28;20018;-71
2022/07/12 06:37:08;;;;;;;2.28;1.42;;;;;;;23.02;69.43;100789.28;5030225;28;20029;-70
2022/07/12 06:39:37;;;;;;;2.10;1.40;;;;;;;23.22;70.20;100783.28;5030679;28;20037;-70
2022/07/12 06:42:05;;;;;;;2.20;1.05;;;;;;;23.36;68.21;100794.03;5030783;28;20025;-70
2022/07/12 06:44:32;;;;;;;2.22;1.02;;;;;;;23.51;67.35;100797.47;5029740;28;20445;-70
2022/07/12 06:46:58;;;;;;;3.97;1.35;;;;;;;23.58;65.91;100787.00;5030659;28;20025;-70
2022/07/12 06:49:24;;;;;;;1.23;1.00;;;;;;;23.76;65.82;100791.97;5030686;28;20033;-70
2022/07/12 06:51:49;;;;;;;1.17;0.70;;;;;;;23.89;65.86;100797.31;5030510;28;20381;-69
2022/07/12 06:54:15;;;;;;;1.88;0.98;;;;;;;24.01;64.11;100794.59;5029917;28;20517;-69
2022/07/12 06:56:41;;;;;;;5.53;0.90;;;;;;;24.05;63.88;100803.41;5030406;28;20033;-69
2022/07/12 06:59:10;;;;;;;2.25;0.90;;;;;;;24.13;63.63;100799.13;5032780;28;20091;-69
2022/07/12 07:01:37;;;;;;;2.15;0.85;;;;;;;24.20;61.39;100802.25;5030502;28;20025;-69
2022/07/12 07:04:02;;;;;;;2.30;1.27;;;;;;;24.39;62.58;100799.84;5033119;28;20024;-69
2022/07/12 07:06:28;;;;;;;1.80;0.90;;;;;;;24.60;63.05;100811.75;5050353;28;20488;-69
2022/07/12 07:08:53;;;;;;;1.50;0.80;;;;;;;24.77;60.37;100802.31;5050445;28;20599;-69
2022/07/12 07:11:19;;;;;;;1.10;0.70;;;;;;;25.04;59.65;100800.16;5046530;28;20040;-69
2022/07/12 07:13:44;;;;;;;3.83;0.95;;;;;;;25.11;58.50;100807.69;5049351;28;20071;-69
2022/07/12 07:16:10;;;;;;;1.83;0.77;;;;;;;25.19;58.65;100810.66;5050361;28;20033;-69
2022/07/12 07:18:35;;;;;;;3.25;1.10;;;;;;;25.27;58.70;100813.63;5049874;28;20141;-69
2022/07/12 07:21:00;;;;;;;5.20;2.88;;;;;;;25.38;58.25;100808.25;5050136;28;20049;-69
2022/07/12 07:23:26;;;;;;;2.75;0.70;;;;;;;25.75;58.98;100819.69;5049197;28;20472;-69
2022/07/12 07:25:52;;;;;;;2.05;1.00;;;;;;;26.00;56.84;100813.09;5050203;28;20491;-69
2022/07/12 07:28:17;;;;;;;2.17;1.00;;;;;;;26.09;56.11;100813.22;5050163;28;20078;-69
2022/07/12 07:30:55;;;;;;;1.42;0.80;;;;;;;26.36;55.86;100820.94;5049433;28;20142;-69
2022/07/12 07:33:22;;;;;;;1.10;0.60;;;;;;;26.57;56.98;100816.38;5041767;28;20421;-69
2022/07/12 07:35:49;;;;;;;1.67;0.80;;;;;;;26.64;53.87;100823.88;5048186;28;20025;-70
2022/07/12 07:38:15;;;;;;;1.20;0.68;;;;;;;26.86;52.72;100820.19;5049661;28;20020;-70
2022/07/12 07:40:41;;;;;;;4.15;0.80;;;;;;;26.84;53.07;100805.78;5050220;28;20055;-70
2022/07/12 07:43:06;;;;;;;1.08;0.70;;;;;;;27.04;53.39;100818.56;5050212;28;20025;-70
2022/07/12 07:45:32;;;;;;;3.28;0.75;;;;;;;27.25;49.85;100816.66;5050301;28;20032;-69
2022/07/12 07:47:57;;;;;;;0.93;0.57;;;;;;;27.75;51.16;100825.81;5051659;28;20483;-69
2022/07/12 07:50:23;;;;;;;1.25;0.60;;;;;;;28.11;48.91;100826.09;5052261;28;20369;-69
2022/07/12 07:52:51;;;;;;;1.55;0.77;;;;;;;28.19;47.06;100815.28;5053409;28;20375;-69
2022/07/12 07:55:17;;;;;;;1.65;0.90;;;;;;;28.52;46.94;100815.94;5053020;28;20024;-69
2022/07/12 07:57:43;;;;;;;0.88;0.68;;;;;;;28.86;47.31;100825.41;5053042;28;20039;-69
2022/07/12 08:00:10;;;;;;;0.98;0.60;;;;;;;28.89;45.60;100823.22;5053186;28;20029;-69
2022/07/12 08:02:36;;;;;;;2.38;0.77;;;;;;;28.96;45.81;100826.25;5051870;28;20029;-69
2022/07/12 08:05:01;;;;;;;0.98;0.60;;;;;;;28.97;43.35;100827.97;5051658;28;20420;-70
2022/07/12 08:07:27;;;;;;;0.75;0.50;;;;;;;28.91;44.89;100823.94;5051450;28;20053;-69
2022/07/12 08:09:52;;;;;;;1.17;0.50;;;;;;;28.91;44.51;100825.81;5047725;28;20025;-70
2022/07/12 08:12:21;;;;;;;1.60;0.50;;;;;;;29.39;44.74;100823.84;5051243;28;20108;-69
2022/07/12 08:14:46;;;;;;;4.90;0.70;;;;;;;29.66;44.47;100829.38;5050828;28;20039;-70
2022/07/12 08:17:11;;;;;;;0.88;0.55;;;;;;;29.99;43.54;100826.00;5051978;28;20025;-70
2022/07/12 08:19:37;;;;;;;0.57;0.40;;;;;;;29.98;42.96;100824.28;5051951;28;20098;-70
2022/07/12 08:22:03;;;;;;;1.33;0.60;;;;;;;29.81;41.50;100825.09;5052762;28;20029;-70
2022/07/12 08:24:29;;;;;;;0.50;0.40;;;;;;;29.88;43.33;100826.22;5051586;28;20473;-70
2022/07/12 08:26:54;;;;;;;0.60;0.40;;;;;;;29.95;41.92;100824.56;5050844;28;20075;-70
2022/07/12 08:29:19;;;;;;;;;;;;;;;30.33;42.78;100827.09;5051927;28;20127;-70
2022/07/12 08:31:45;;;;;;;;;;;;;;;30.69;41.93;100826.06;5052821;28;19938;-71
2022/07/12 08:34:11;;;;;;;;;;;;;;;30.66;39.91;100828.25;5047839;28;19981;-70
2022/07/12 08:36:36;;;;;;;2.15;0.55;;;;;;;30.45;40.99;100817.59;5031087;28;20872;-71
2022/07/12 08:39:03;;;;;;;2.20;0.40;;;;;;;30.59;40.46;100828.00;5031193;28;20025;-71
2022/07/12 08:41:29;;;;;;;0.40;0.30;;;;;;;30.60;41.17;100829.75;5029980;28;20091;-70
2022/07/12 08:43:55;;;;;;;0.70;0.40;;;;;;;30.53;40.09;100831.41;5029514;28;20025;-71
2022/07/12 08:46:20;;;;;;;0.43;0.30;;;;;;;30.72;40.77;100823.00;5030170;28;20027;-70
2022/07/12 08:48:46;;;;;;;1.08;0.40;;;;;;;31.15;41.08;100815.78;5029409;28;20029;-70
2022/07/12 08:51:18;;;;;;;0.75;0.30;;;;;;;31.15;38.84;100815.78;5029533;28;20033;-70
2022/07/12 08:53:44;;;;;;;0.40;0.27;;;;;;;31.08;39.24;100828.44;5029494;28;20025;-70
2022/07/12 08:56:37;;;;;;;0.28;0.25;;;;;;;31.18;39.12;100832.81;5030012;28;20025;-71
2022/07/12 08:59:16;;;;;;;1.02;0.40;;;;;;;31.42;40.05;100827.50;5031110;28;20021;-70
2022/07/12 09:01:47;;;;;;;1.65;0.40;;;;;;;31.50;38.66;100826.69;5030655;28;20036;-70
2022/07/12 09:04:18;;;;;;;1.02;0.47;;;;;;;31.60;38.18;100831.03;5030303;28;20100;-70
2022/07/12 09:06:43;;;;;;;1.30;0.40;;;;;;;31.64;38.67;100826.06;5033935;28;20033;-70
2022/07/12 09:09:09;;;;;;;0.98;0.40;;;;;;;31.48;38.46;100831.50;5031260;28;20074;-70
2022/07/12 09:11:37;;;;;;;1.63;0.40;;;;;;;31.60;38.57;100836.53;5034545;28;20422;-70
2022/07/12 09:14:03;;;;;;;0.40;0.30;;;;;;;31.51;38.14;100826.53;5031592;28;20025;-70
2022/07/12 09:16:28;;;;;;;1.27;0.52;;;;;;;31.69;37.76;100835.56;5045471;28;20111;-71
2022/07/12 09:19:16;;;;;;;0.82;0.40;;;;;;;31.97;38.56;100842.59;5049878;28;20174;-70
2022/07/12 09:21:48;;;;;;;1.83;0.50;;;;;;;32.23;37.51;100839.72;5050064;28;20032;-70
2022/07/12 09:24:13;;;;;;;2.75;0.50;;;;;;;31.78;38.26;100840.06;5049215;28;20438;-70
2022/07/12 09:26:38;;;;;;;1.30;0.60;;;;;;;31.78;39.18;100839.22;5049546;28;20028;-70
2022/07/12 09:29:12;;;;;;;0.47;0.40;;;;;;;31.92;38.68;100835.84;5050905;28;20060;-70
2022/07/12 09:36:06;;;;;;;1.70;0.30;;;;;;;32.20;39.35;100834.56;5051609;28;20559;-71
2022/07/12 09:37:12;;;;;;;0.43;0.28;;;;;;;32.65;37.04;100839.66;5049413;28;20059;-71
2022/07/12 09:39:38;;;;;;;2.25;0.65;;;;;;;32.30;36.77;100835.28;5032290;28;20043;-71
2022/07/12 09:42:06;;;;;;;1.05;0.75;;;;;;;32.30;36.44;100829.75;5049366;28;20036;-71
2022/07/12 09:44:32;;;;;;;0.95;0.60;;;;;;;32.40;37.51;100825.00;5049584;28;20029;-71
2022/07/12 09:46:59;;;;;;;0.98;0.60;;;;;;;32.51;37.67;100832.91;5049971;28;20059;-71
2022/07/12 09:49:26;;;;;;;0.85;0.55;;;;;;;32.84;36.90;100823.63;5049791;28;20028;-71
2022/07/12 09:51:56;;;;;;;1.67;0.77;;;;;;;32.62;35.12;100835.31;5050017;28;20033;-71
2022/07/12 09:54:27;;;;;;;1.90;0.80;;;;;;;32.25;36.95;100836.78;5049740;28;20052;-71
2022/07/12 09:56:58;;;;;;;3.05;0.80;;;;;;;32.32;36.58;100841.47;5050495;28;20459;-70
2022/07/12 09:59:27;;;;;;;0.80;0.50;;;;;;;32.30;37.56;100840.78;5050006;28;20025;-70
2022/07/12 10:01:56;;;;;;;0.88;0.50;;;;;;;32.57;35.96;100839.66;5050713;28;20033;-70
2022/07/12 10:04:21;;;;;;;2.45;0.63;;;;;;;32.75;37.46;100829.31;5050624;28;20043;-70
2022/07/12 10:06:47;;;;;;;2.78;0.65;;;;;;;32.76;35.00;100822.75;5050573;28;20036;-71
2022/07/12 10:09:14;;;;;;;1.67;0.80;;;;;;;32.76;35.59;100826.38;5051011;28;20115;-70
2022/07/12 10:11:41;;;;;;;1.25;0.68;;;;;;;33.01;36.57;100827.25;5050938;28;20025;-70
2022/07/12 10:14:11;;;;;;;0.88;0.47;;;;;;;32.89;34.88;100832.25;5050758;28;20024;-71
2022/07/12 10:16:38;;;;;;;1.73;0.50;;;;;;;33.11;36.77;100839.81;5050676;28;20055;-71
2022/07/12 10:19:23;;;;;;;0.63;0.38;;;;;;;33.26;36.74;100840.81;5046628;28;20064;-70
2022/07/12 10:21:50;;;;;;;0.77;0.50;;;;;;;33.22;36.16;100839.47;5051152;28;20028;-71
2022/07/12 10:24:31;;;;;;;1.02;0.43;;;;;;;33.17;35.89;100836.38;5051175;28;20036;-71
2022/07/12 10:27:15;;;;;;;1.77;0.70;;;;;;;33.28;36.02;100833.25;5050513;28;20047;-71
2022/07/12 10:29:45;;;;;;;2.17;0.60;;;;;;;33.32;35.53;100833.75;5049569;28;20071;-71
2022/07/12 10:32:34;;;;;;;1.85;0.40;;;;;;;33.41;35.30;100820.81;5048605;28;20033;-71
2022/07/12 10:35:02;;;;;;;0.60;0.40;;;;;;;33.83;35.28;100832.41;5024601;28;20033;-71
2022/07/12 10:37:29;;;;;;;1.13;0.50;;;;;;;34.06;34.31;100823.19;5028526;28;20036;-71
2022/07/12 10:40:17;;;;;;;0.88;0.55;;;;;;;34.20;33.95;100827.06;5028861;28;20116;-70
2022/07/12 10:43:04;;;;;;;2.20;0.63;;;;;;;34.12;34.87;100821.59;5028631;28;20104;-71
2022/07/12 10:45:35;;;;;;;3.60;0.70;;;;;;;34.08;34.18;100825.75;5030115;28;20156;-71
2022/07/12 10:48:03;;;;;;;1.17;0.70;;;;;;;34.15;33.33;100815.72;5030736;28;20045;-71
2022/07/12 10:50:44;;;;;;;4.28;0.80;;;;;;;33.75;34.30;100822.28;5036664;28;20037;-71
2022/07/12 10:53:18;;;;;;;0.98;0.40;;;;;;;33.52;34.10;100823.22;5047108;28;20569;-71
2022/07/12 10:56:21;;;;;;;1.15;0.30;;;;;;;33.76;34.78;100823.09;5050122;28;20090;-71
2022/07/12 10:58:49;;;;;;;0.55;0.40;;;;;;;33.91;35.39;100824.06;5050169;28;20025;-71
2022/07/12 11:01:17;;;;;;;1.13;0.40;;;;;;;34.21;35.06;100823.25;5050507;28;20025;-71
2022/07/12 11:03:46;;;;;;;0.85;0.40;;;;;;;34.22;33.37;100811.16;5050293;28;20028;-71
2022/07/12 11:06:15;;;;;;;0.52;0.32;;;;;;;34.35;33.39;100814.22;5050223;28;20021;-70
2022/07/12 11:09:03;;;;;;;1.73;0.30;;;;;;;34.55;33.25;100813.56;5051642;28;20555;-71
2022/07/12 11:11:31;;;;;;;0.47;0.30;;;;;;;34.81;33.44;100807.63;5047916;28;20025;-71
2022/07/12 11:13:59;;;;;;;0.38;0.30;;;;;;;34.91;33.26;100808.25;5053988;28;20484;-71
2022/07/12 11:16:25;;;;;;;0.40;0.40;;;;;;;34.92;33.01;100812.75;5053722;28;20024;-70
2022/07/12 11:18:53;;;;;;;0.30;0.20;;;;;;;34.52;33.50;100800.09;5053154;28;20496;-70
2022/07/12 11:21:19;;;;;;;0.65;0.28;;;;;;;34.62;33.10;100797.09;5053083;28;20057;-70
2022/07/12 11:23:45;;;;;;;0.80;0.30;;;;;;;34.61;32.61;100800.91;5053217;28;20021;-70
2022/07/12 11:26:13;;;;;;;0.22;0.20;;;;;;;35.08;33.36;100801.53;5052999;28;20123;-70
2022/07/12 11:28:39;;;;;;;1.33;0.30;;;;;;;35.26;32.02;100817.75;5053174;28;20096;-70
2022/07/12 11:31:08;;;;;;;1.58;0.30;;;;;;;35.13;31.80;100806.47;5053475;28;20474;-69
2022/07/12 11:33:36;;;;;;;0.40;0.20;;;;;;;35.01;31.68;100817.16;5053853;28;20057;-69
2022/07/12 11:36:04;;;;;;;1.48;0.50;;;;;;;34.82;33.15;100809.34;5033563;28;20477;-70